Latest Weather Observations for Grove

IDT60801

Issued at 9:32 pm EDT Monday 20 February 2017 (issued every 30 minutes, with the page automatically refreshed every 10 minutes)

About weather observations | Map of weather stations | Latest weather observations for TAS | Other Formats
Station Details ID: 094220 Name: GROVE (RESEARCH STATION) Lat: -42.99 Lon: 147.07 Height: 65.0 m
Data from the previous 72 hours. | See also: Recent months at Grove
Date/Time
EDT
Temp
°C
App
Temp
°C
Dew
Point
°C
Rel
Hum
%
Delta-T
°C
Wind Press
QNH
hPa
Press
MSL
hPa
Rain since
9am
mm
Dir  Spd
km/h
Gust
km/h
Spd
kts
Gust
kts
20/09:30pm 12.4 11.0 9.7 83 1.4 WSW 7 11 4 6 - - 3.2
20/09:00pm 12.6 10.9 9.7 82 1.5 W 9 15 5 8 - - 3.2
20/08:30pm 12.6 10.6 10.1 85 1.3 W 11 17 6 9 - - 3.2
20/08:00pm 12.5 11.0 10.4 87 1.1 WSW 9 15 5 8 - - 3.2
20/07:30pm 12.8 11.8 10.9 88 1.0 SW 7 15 4 8 - - 3.2
20/07:00pm 12.7 11.3 11.0 89 0.9 SW 9 13 5 7 - - 3.2
20/06:30pm 13.6 12.1 10.5 81 1.6 SW 9 15 5 8 - - 2.8
20/06:00pm 13.6 11.6 10.3 80 1.7 SW 11 19 6 10 - - 2.8
20/05:30pm 13.4 11.3 11.1 86 1.2 WSW 13 19 7 10 - - 2.8
20/05:00pm 13.7 11.2 10.9 83 1.5 SSW 15 24 8 13 - - 2.8
20/04:30pm 15.5 13.5 11.6 77 2.1 WSW 13 20 7 11 - - 2.6
20/04:00pm 14.0 12.0 11.4 84 1.4 SW 13 20 7 11 - - 2.6
20/03:30pm 14.9 13.4 10.7 76 2.2 SW 9 15 5 8 - - 2.6
20/03:00pm 15.2 12.9 10.3 72 2.6 S 13 24 7 13 - - 2.6
20/02:30pm 14.3 13.2 12.1 87 1.2 W 9 15 5 8 - - 2.6
20/02:00pm 13.6 12.9 11.9 89 0.9 W 7 11 4 6 - - 2.6
20/01:30pm 15.3 13.4 10.6 73 2.5 SSW 11 22 6 12 - - 0.2
20/01:00pm 16.1 13.4 9.1 63 3.6 WSW 13 19 7 10 - - 0.2
20/12:30pm 15.0 13.7 10.0 72 2.6 SSW 7 13 4 7 - - 0.0
20/12:00pm 12.8 12.2 9.0 78 1.9 SSW 2 11 1 6 - - 0.0
20/11:30am 11.6 10.3 9.2 85 1.2 WNW 6 9 3 5 - - 0.0
20/11:00am 10.8 9.7 8.6 86 1.1 WSW 4 6 2 3 - - 0.0
20/10:30am 9.9 9.6 8.5 91 0.7 CALM 0 0 0 0 - - 0.0
20/10:00am 9.3 8.9 8.3 93 0.5 CALM 0 0 0 0 - - 0.0
20/09:30am 8.6 7.0 8.0 96 0.3 WSW 6 9 3 5 - - 0.0
20/09:00am 8.2 7.7 7.8 97 0.2 CALM 0 0 0 0 - - 4.8
20/08:30am 7.9 7.0 7.7 99 0.1 S 2 7 1 4 - - 4.8
20/08:00am 7.4 6.4 7.4 100 0.0 NNE 2 7 1 4 - - 4.8
20/07:30am 6.6 5.4 6.4 99 0.1 NE 2 7 1 4 - - 4.8
20/07:00am 5.8 3.7 5.6 99 0.1 NNE 6 7 3 4 - - 4.8
20/06:30am 5.7 4.7 5.7 100 0.0 CALM 0 0 0 0 - - 4.8
20/06:00am 5.6 3.4 5.4 99 0.1 NNE 6 7 3 4 - - 4.8
20/05:30am 5.4 4.3 5.2 99 0.1 CALM 0 0 0 0 - - 4.8
20/05:00am 6.0 3.7 5.5 97 0.2 NNW 7 9 4 5 - - 4.8
20/04:30am 5.3 2.9 5.1 99 0.1 NE 7 9 4 5 - - 4.8
20/04:00am 5.1 2.9 5.1 100 0.0 ENE 6 7 3 4 - - 4.6
20/03:30am 5.0 2.5 5.0 100 0.0 NE 7 9 4 5 - - 4.6
20/03:00am 5.9 3.6 5.7 99 0.1 NNE 7 7 4 4 - - 4.6
20/02:30am 5.9 3.8 5.7 99 0.1 NE 6 7 3 4 - - 4.6
20/02:00am 6.1 4.8 5.9 99 0.1 NE 2 9 1 5 - - 4.6
20/01:30am 6.7 4.8 6.5 99 0.1 NE 6 7 3 4 - - 4.6
20/01:00am 7.9 7.3 7.5 97 0.2 CALM 0 0 0 0 - - 4.6
20/12:30am 7.9 5.6 7.5 97 0.2 ENE 9 13 5 7 - - 4.6
20/12:00am 8.6 7.5 8.4 99 0.1 NNE 4 9 2 5 - - 4.6
 
Date/Time
EDT
Temp
°C
App
Temp
°C
Dew
Point
°C
Rel
Hum
%
Delta-T
°C
Wind Press
QNH
hPa
Press
MSL
hPa
Rain since
9am
mm
Dir  Spd
km/h
Gust
km/h
Spd
kts
Gust
kts
19/11:30pm 9.1 8.4 8.7 97 0.2 NNW 2 7 1 4 - - 4.6
19/11:00pm 9.6 7.9 8.2 91 0.7 ENE 7 13 4 7 - - 2.4
19/10:30pm 10.2 7.7 8.1 87 1.0 NE 11 15 6 8 - - 0.6
19/10:00pm 10.4 7.2 7.0 79 1.6 S 13 17 7 9 - - 0.4
19/09:30pm 11.3 8.5 6.9 74 2.1 S 11 17 6 9 - - 0.4
19/09:00pm 12.3 10.5 7.8 74 2.2 S 7 9 4 5 - - 0.2
19/08:30pm 12.7 10.8 7.4 70 2.6 SW 7 9 4 5 - - 0.2
19/08:00pm 13.6 11.6 6.1 60 3.6 S 6 11 3 6 - - 0.2
19/07:30pm 14.2 12.4 5.5 56 4.1 W 4 9 2 5 - - 0.2
19/07:00pm 14.5 11.3 5.2 53 4.4 SE 11 20 6 11 - - 0.2
19/06:30pm 15.1 11.4 4.6 49 4.9 SE 13 20 7 11 - - 0.2
19/06:00pm 15.6 13.9 6.1 53 4.6 SSE 4 7 2 4 - - 0.2
19/05:30pm 16.3 12.2 4.1 44 5.7 ESE 15 20 8 11 - - 0.2
19/05:00pm 17.2 14.7 4.9 44 5.9 W 7 13 4 7 - - 0.2
19/04:30pm 15.9 13.7 6.0 52 4.8 WNW 7 13 4 7 - - 0.2
19/04:00pm 15.4 14.2 6.4 55 4.4 SW 2 9 1 5 - - 0.2
19/03:30pm 15.2 12.8 7.1 58 4.0 SSW 9 15 5 8 - - 0.2
19/03:00pm 14.9 12.3 7.7 62 3.6 SW 11 17 6 9 - - 0.2
19/02:30pm 13.7 10.1 6.7 62 3.4 SW 15 24 8 13 - - 0.2
19/02:00pm 14.0 10.7 8.2 68 2.9 SW 15 19 8 10 - - 0.2
19/01:30pm 12.7 10.3 8.5 75 2.1 SW 11 15 6 8 - - 0.2
19/01:00pm 12.3 10.4 7.6 73 2.3 SW 7 11 4 6 - - 0.2
19/12:30pm 11.4 8.4 7.5 77 1.9 NW 13 19 7 10 - - 0.2
19/12:00pm 13.7 10.3 4.1 52 4.4 SSE 11 17 6 9 - - 0.0
19/11:30am 15.2 12.2 4.2 48 5.1 WSW 9 15 5 8 - - 0.0
19/11:00am 14.1 11.6 4.9 54 4.3 SW 7 13 4 7 - - 0.0
19/10:30am 13.0 10.2 5.3 59 3.6 SSW 9 11 5 6 - - 0.0
19/10:00am 12.3 9.5 5.2 62 3.3 SW 9 13 5 7 - - 0.0
19/09:30am 12.2 9.9 5.0 61 3.3 SSW 6 11 3 6 - - 0.0
19/09:00am 11.0 8.5 4.8 65 2.8 SSW 7 9 4 5 - - 0.0
19/08:30am 9.7 7.5 5.3 74 2.0 SSW 6 9 3 5 - - 0.0
19/08:00am 8.9 6.6 4.6 74 1.9 SW 6 9 3 5 - - 0.0
19/07:30am 8.0 5.5 4.8 80 1.4 WSW 7 11 4 6 - - 0.0
19/07:00am 6.9 5.4 4.8 86 0.9 WSW 2 7 1 4 - - 0.0
19/06:30am 7.3 4.9 4.3 81 1.3 W 6 9 3 5 - - 0.0
19/06:00am 7.8 5.9 5.1 83 1.2 S 4 7 2 4 - - 0.0
19/05:30am 7.8 5.6 5.1 83 1.2 NE 6 9 3 5 - - 0.0
19/05:00am 7.2 4.7 4.9 85 1.0 WSW 7 9 4 5 - - 0.0
19/04:30am 9.9 7.1 2.9 62 3.0 SSW 7 11 4 6 - - 0.0
19/04:00am 8.6 6.0 4.0 73 2.0 E 7 13 4 7 - - 0.0
19/03:30am 8.8 5.7 3.5 69 2.3 ENE 9 15 5 8 - - 0.0
19/03:00am 7.9 5.3 4.0 76 1.7 ESE 7 11 4 6 - - 0.0
19/02:30am 7.7 5.6 4.0 77 1.6 NNE 4 7 2 4 - - 0.0
19/02:00am 8.5 6.0 3.9 73 2.0 NE 6 11 3 6 - - 0.0
19/01:30am 7.7 6.1 4.3 79 1.5 NE 2 9 1 5 - - 0.0
19/01:00am 7.4 5.0 4.4 81 1.3 ENE 6 11 3 6 - - 0.0
19/12:30am 8.1 5.5 4.2 76 1.7 ENE 7 11 4 6 - - 0.0
19/12:00am 8.7 6.4 4.6 75 1.8 ENE 6 7 3 4 - - 0.0
 
Date/Time
EDT
Temp
°C
App
Temp
°C
Dew
Point
°C
Rel
Hum
%
Delta-T
°C
Wind Press
QNH
hPa
Press
MSL
hPa
Rain since
9am
mm
Dir  Spd
km/h
Gust
km/h
Spd
kts
Gust
kts
18/11:30pm 8.6 6.2 4.5 75 1.8 NNE 6 11 3 6 - - 0.0
18/11:00pm 8.7 6.1 4.4 74 1.9 NE 7 9 4 5 - - 0.0
18/10:30pm 8.6 6.7 5.0 78 1.6 NW 4 7 2 4 - - 0.0
18/10:00pm 8.9 6.3 4.4 73 2.0 NE 7 9 4 5 - - 0.0
18/09:30pm 8.8 6.2 4.0 72 2.1 E 7 9 4 5 - - 0.0
18/09:00pm 9.6 6.9 3.9 67 2.5 N 7 9 4 5 - - 0.0
18/08:30pm 11.3 9.6 1.6 51 4.1 CALM 0 7 0 4 - - 0.0
18/08:00pm 12.5 9.6 2.4 50 4.4 N 7 11 4 6 - - 0.0
18/07:30pm 13.6 9.6 0.6 41 5.5 NW 11 22 6 12 - - 0.0
18/07:00pm 14.2 9.1 -1.9 33 6.5 NW 15 24 8 13 - - 0.0
18/06:30pm 14.7 9.4 2.0 42 5.6 WSW 19 28 10 15 - - 0.0
18/06:00pm 17.3 12.7 -1.2 28 7.8 WNW 13 20 7 11 - - 0.0
18/05:30pm 17.4 11.6 -0.2 30 7.6 NW 20 26 11 14 - - 0.0
18/05:00pm 17.1 13.7 1.7 35 6.9 WSW 9 19 5 10 - - 0.0
18/04:30pm 16.1 11.1 1.3 36 6.5 WNW 17 28 9 15 - - 0.0
18/04:00pm 15.3 9.7 1.0 38 6.2 W 20 32 11 17 - - 0.0
18/03:32pm 15.0 8.0 1.8 41 5.8 WSW 28 46 15 25 - - 0.0
18/03:30pm 14.9 7.5 1.7 41 5.8 WSW 30 46 16 25 - - 0.0
18/03:28pm 15.2 7.2 1.8 40 5.9 WSW 33 46 18 25 - - 0.0
18/03:00pm 14.7 9.3 2.6 44 5.4 S 20 28 11 15 - - 0.0
18/02:30pm 14.0 8.4 3.4 49 4.8 S 22 33 12 18 - - 0.0
18/02:00pm 14.4 7.9 2.5 44 5.3 WSW 26 39 14 21 - - 0.0
18/01:30pm 16.6 11.8 2.8 39 6.3 WSW 17 26 9 14 - - 0.0
18/01:00pm 16.6 12.6 3.1 40 6.2 WSW 13 22 7 12 - - 0.0
18/12:30pm 16.8 11.2 0.1 32 7.2 NW 19 35 10 19 - - 0.0
18/12:00pm 15.5 10.1 1.3 38 6.2 NNW 19 28 10 15 - - 0.0
18/11:30am 16.0 10.5 1.8 38 6.3 NW 20 37 11 20 - - 0.0
18/11:00am 15.5 10.1 1.3 38 6.2 W 19 24 10 13 - - 0.0
18/10:30am 14.9 10.4 2.0 41 5.7 WNW 15 20 8 11 - - 0.0
18/10:00am 13.2 9.7 3.4 51 4.4 SSW 11 19 6 10 - - 0.0
18/09:30am 13.2 8.9 3.1 50 4.5 W 15 22 8 12 - - 0.0
18/09:00am 11.4 9.1 4.8 64 3.0 N 6 9 3 5 - - 0.0
18/08:30am 10.8 8.5 5.8 71 2.3 E 7 9 4 5 - - 0.0
18/08:00am 8.1 6.4 5.7 85 1.1 NE 4 9 2 5 - - 0.0
18/07:30am 5.6 3.0 4.2 91 0.6 N 7 7 4 4 - - 0.0
18/07:00am 3.9 1.2 2.9 93 0.4 NE 6 7 3 4 - - 0.0
18/06:30am 4.6 3.2 3.6 93 0.4 CALM 0 0 0 0 - - 0.0
18/06:00am 4.9 2.8 4.0 94 0.4 NE 4 7 2 4 - - 0.0
18/05:30am 5.8 2.8 3.9 88 0.8 ENE 9 13 5 7 - - 0.0
18/05:00am 6.1 3.4 3.7 84 1.0 ENE 7 9 4 5 - - 0.0
18/04:30am 7.3 5.7 4.6 83 1.2 NNW 2 7 1 4 - - 0.0
18/04:00am 8.1 5.1 4.2 76 1.7 SW 9 15 5 8 - - 0.0
18/03:30am 9.7 7.4 4.6 70 2.3 N 6 13 3 7 - - 0.0
18/03:00am 10.7 7.2 3.7 62 3.1 WNW 11 19 6 10 - - 0.0
18/02:30am 10.1 6.8 2.6 59 3.2 WNW 9 19 5 10 - - 0.0
18/02:00am 8.4 5.4 4.0 74 1.9 N 9 15 5 8 - - 0.0
18/01:30am 9.6 6.5 3.4 65 2.7 NNE 9 15 5 8 - - 0.0
18/01:00am 10.3 8.0 4.8 69 2.5 NNW 6 9 3 5 - - 0.0
18/12:30am 10.6 8.2 5.4 70 2.4 W 7 13 4 7 - - 0.0
18/12:00am 11.8 8.5 4.3 60 3.4 WNW 11 19 6 10 - - 0.0
 
Date/Time
EDT
Temp
°C
App
Temp
°C
Dew
Point
°C
Rel
Hum
%
Delta-T
°C
Wind Press
QNH
hPa
Press
MSL
hPa
Rain since
9am
mm
Dir  Spd
km/h
Gust
km/h
Spd
kts
Gust
kts
17/11:30pm 12.5 8.0 4.1 56 3.8 W 17 30 9 16 - - 0.0
17/11:00pm 13.1 8.9 3.8 53 4.2 WSW 15 26 8 14 - - 0.0
17/10:30pm 12.7 10.0 3.8 54 4.0 W 7 11 4 6 - - 0.0
17/10:00pm 13.2 10.1 3.7 52 4.3 WNW 9 15 5 8 - - 0.0

Other Formats:

Comma delimited format used in spreadsheet applications
http://www.bom.gov.au/fwo/IDT60801/IDT60801.95977.axf

JavaScript Object Notation format (JSON) in row-major order
http://www.bom.gov.au/fwo/IDT60801/IDT60801.95977.json